createdAt,value
2024-02-19T00:02:57.687Z,98.19
2024-02-19T00:06:59.307Z,98.15
2024-02-19T00:11:02.367Z,98.28
2024-02-19T00:15:06.510Z,98.01
2024-02-19T00:19:08.257Z,98.00
2024-02-19T00:23:09.848Z,98.31
2024-02-19T00:27:11.454Z,98.46
2024-02-19T00:31:13.520Z,98.62
2024-02-19T00:35:15.128Z,98.89
2024-02-19T00:39:16.661Z,98.83
2024-02-19T00:43:18.297Z,98.85
2024-02-19T00:47:19.904Z,98.60
2024-02-19T00:51:21.487Z,98.60
2024-02-19T00:55:23.134Z,98.46
2024-02-19T00:59:26.553Z,98.79
2024-02-19T01:03:28.370Z,98.90
2024-02-19T01:07:29.991Z,98.56
2024-02-19T01:11:31.653Z,98.28
2024-02-19T01:15:33.299Z,98.46
2024-02-19T01:19:35.445Z,98.46
2024-02-19T01:23:37.561Z,98.37
2024-02-19T01:27:39.139Z,98.32
2024-02-19T01:31:40.729Z,98.29
2024-02-19T01:35:42.625Z,98.80
2024-02-19T01:43:45.864Z,98.79
2024-02-19T01:47:47.532Z,98.79
2024-02-19T01:51:49.844Z,98.55
2024-02-19T01:55:51.503Z,98.31
2024-02-19T01:59:54.034Z,98.40
2024-02-19T02:03:55.970Z,97.87
2024-02-19T02:07:58.396Z,97.97
2024-02-19T02:12:00.094Z,97.97
2024-02-19T02:16:05.726Z,98.38
2024-02-19T02:20:09.286Z,98.48
2024-02-19T02:24:11.024Z,98.41
2024-02-19T02:28:12.675Z,98.48
2024-02-19T02:32:16.303Z,98.29
2024-02-19T02:36:17.893Z,98.53
2024-02-19T02:40:19.489Z,98.51
2024-02-19T02:44:21.125Z,98.82
2024-02-19T02:48:23.172Z,98.95
2024-02-19T02:52:24.872Z,98.92
2024-02-19T02:56:26.396Z,98.97
2024-02-19T03:00:27.936Z,99.00
2024-02-19T03:04:29.588Z,98.69
2024-02-19T03:08:31.643Z,98.67
2024-02-19T03:12:33.211Z,98.66
2024-02-19T03:16:35.544Z,98.47
2024-02-19T03:20:37.693Z,98.28
2024-02-19T03:24:39.341Z,98.23
2024-02-19T03:28:40.982Z,98.02
2024-02-19T03:32:42.688Z,98.15
2024-02-19T03:36:51.857Z,98.09
2024-02-19T03:40:53.419Z,98.35
2024-02-19T03:44:54.948Z,98.32
2024-02-19T03:48:56.971Z,98.07
2024-02-19T03:52:58.615Z,98.36
2024-02-19T03:57:00.246Z,98.69
2024-02-19T04:01:02.122Z,98.60
2024-02-19T04:05:04.581Z,98.81
2024-02-19T04:09:06.175Z,98.81
2024-02-19T04:13:07.713Z,98.56
2024-02-19T04:17:09.608Z,98.59
2024-02-19T04:21:11.146Z,98.95
2024-02-19T04:25:14.552Z,99.14
2024-02-19T04:29:16.104Z,98.87
2024-02-19T04:33:17.699Z,99.30
2024-02-19T04:37:20.652Z,99.58
2024-02-19T04:41:22.202Z,99.60
2024-02-19T04:45:23.816Z,99.66
2024-02-19T04:49:25.448Z,99.35
2024-02-19T04:53:27.322Z,99.42
2024-02-19T04:57:28.917Z,99.24
2024-02-19T05:01:33.845Z,99.53
2024-02-19T05:05:36.385Z,99.60
2024-02-19T05:09:38.151Z,99.60
2024-02-19T05:13:39.746Z,99.56
2024-02-19T05:17:41.315Z,99.98
2024-02-19T05:21:43.000Z,100.00
2024-02-19T05:25:44.663Z,100.00
2024-02-19T05:29:46.226Z,100.00
2024-02-19T05:33:47.835Z,99.84
2024-02-19T05:37:49.421Z,99.83
2024-02-19T05:41:50.961Z,99.65
2024-02-19T05:45:54.200Z,99.50
2024-02-19T05:49:55.966Z,99.72
2024-02-19T05:53:57.509Z,99.94
2024-02-19T05:57:59.216Z,100.00
2024-02-19T06:02:01.074Z,100.00
2024-02-19T06:06:04.139Z,99.96
2024-02-19T06:10:07.793Z,99.93
2024-02-19T06:14:09.432Z,99.90
2024-02-19T06:18:11.086Z,100.00
2024-02-19T06:22:15.294Z,100.00
2024-02-19T06:26:17.050Z,100.00
2024-02-19T06:30:19.901Z,100.00
2024-02-19T06:34:22.441Z,100.00
2024-02-19T06:38:24.084Z,100.00
2024-02-19T06:42:25.582Z,99.90
2024-02-19T06:46:27.290Z,100.00
2024-02-19T06:50:28.818Z,100.00
2024-02-19T06:54:31.965Z,100.00
2024-02-19T06:58:34.811Z,100.00
2024-02-19T07:02:36.660Z,100.00
2024-02-19T07:06:38.585Z,100.00
2024-02-19T07:10:40.782Z,100.00
2024-02-19T07:14:43.008Z,100.00
2024-02-19T07:18:44.813Z,100.00
2024-02-19T07:22:46.487Z,100.00
2024-02-19T07:26:48.098Z,100.00
2024-02-19T07:30:49.628Z,100.00
2024-02-19T07:34:51.190Z,99.62
2024-02-19T07:38:52.834Z,98.70
2024-02-19T07:42:54.412Z,99.07
2024-02-19T07:46:55.915Z,99.16
2024-02-19T07:50:57.479Z,98.49
2024-02-19T07:54:59.161Z,97.16
2024-02-19T07:59:00.663Z,97.24
2024-02-19T08:03:02.811Z,97.09
2024-02-19T08:07:05.014Z,97.01
2024-02-19T08:11:06.951Z,97.12
2024-02-19T08:15:10.045Z,97.11
2024-02-19T08:19:11.668Z,97.24
2024-02-19T08:23:13.436Z,97.61
2024-02-19T08:27:15.024Z,97.46
2024-02-19T08:31:16.620Z,97.67
2024-02-19T08:35:18.485Z,97.70
2024-02-19T08:39:20.229Z,97.00
2024-02-19T08:43:21.887Z,97.42
2024-02-19T08:47:23.674Z,96.87
2024-02-19T08:51:25.552Z,95.81
2024-02-19T08:55:27.296Z,94.60
2024-02-19T08:59:28.928Z,94.63
2024-02-19T09:03:30.588Z,95.22
2024-02-19T09:07:33.108Z,94.86
2024-02-19T09:11:34.822Z,92.62
2024-02-19T09:15:36.421Z,91.01
2024-02-19T09:19:38.187Z,92.02
2024-02-19T09:23:39.934Z,92.30
2024-02-19T09:27:41.564Z,92.75
2024-02-19T09:31:43.047Z,91.77
2024-02-19T09:35:45.517Z,92.99
2024-02-19T09:39:51.579Z,92.15
2024-02-19T09:43:53.246Z,90.56
2024-02-19T09:48:01.425Z,90.65
2024-02-19T09:52:04.425Z,89.36
2024-02-19T09:56:08.144Z,88.26
2024-02-19T10:00:13.423Z,89.50
2024-02-19T10:04:16.840Z,89.69
2024-02-19T10:08:18.551Z,88.52
2024-02-19T10:12:20.709Z,88.67
2024-02-19T10:16:22.302Z,89.13
2024-02-19T10:20:23.868Z,87.89
2024-02-19T10:24:27.203Z,90.05
2024-02-19T10:28:29.859Z,87.13
2024-02-19T10:32:31.505Z,85.86
2024-02-19T10:36:34.505Z,83.56
2024-02-19T10:40:36.554Z,83.98
2024-02-19T10:44:38.790Z,83.40
2024-02-19T10:48:41.567Z,83.63
2024-02-19T10:52:43.170Z,81.61
2024-02-19T10:56:45.482Z,82.52
2024-02-19T11:00:47.202Z,85.36
2024-02-19T11:04:52.696Z,82.46
2024-02-19T11:08:57.187Z,85.69
2024-02-19T11:13:07.436Z,82.00
2024-02-19T11:17:09.900Z,82.21
2024-02-19T11:21:12.067Z,83.74
2024-02-19T11:25:13.672Z,83.85
2024-02-19T11:29:23.482Z,86.18
2024-02-19T11:33:26.704Z,86.68
2024-02-19T11:37:28.318Z,86.15
2024-02-19T11:41:30.125Z,84.61
2024-02-19T11:45:33.891Z,83.74
2024-02-19T11:49:35.709Z,85.80
2024-02-19T11:53:37.769Z,84.87
2024-02-19T11:57:39.268Z,83.32
2024-02-19T12:01:41.011Z,83.87
2024-02-19T12:05:43.078Z,83.34
2024-02-19T12:09:45.035Z,84.45
2024-02-19T12:13:47.459Z,86.55
2024-02-19T12:17:54.202Z,88.13
2024-02-19T12:21:55.940Z,87.13
2024-02-19T12:25:57.524Z,86.83
2024-02-19T12:29:59.160Z,86.94
2024-02-19T12:34:01.111Z,86.36
2024-02-19T12:38:02.859Z,85.78
2024-02-19T12:42:09.515Z,82.68
2024-02-19T12:46:15.630Z,85.06
2024-02-19T12:50:18.660Z,84.14
2024-02-19T12:54:21.747Z,84.89
2024-02-19T12:58:24.296Z,84.00
2024-02-19T13:02:25.946Z,84.75
2024-02-19T13:06:29.006Z,83.84
2024-02-19T13:10:32.717Z,82.89
2024-02-19T13:14:35.466Z,84.84
2024-02-19T13:18:37.445Z,86.63
2024-02-19T13:22:39.200Z,84.87
2024-02-19T13:26:40.788Z,85.54
2024-02-19T13:30:42.565Z,84.94
2024-02-19T13:34:44.228Z,85.56
2024-02-19T13:38:48.703Z,85.69
2024-02-19T13:42:50.410Z,84.72
2024-02-19T13:46:52.097Z,85.68
2024-02-19T13:50:57.881Z,86.17
2024-02-19T13:54:59.816Z,85.99
2024-02-19T13:59:01.376Z,85.90
2024-02-19T14:03:03.133Z,86.70
2024-02-19T14:07:05.242Z,86.25
2024-02-19T14:11:08.140Z,85.32
2024-02-19T14:15:10.037Z,84.46
2024-02-19T14:19:11.792Z,84.94
2024-02-19T14:23:13.740Z,85.66
2024-02-19T14:27:15.397Z,86.78
2024-02-19T14:31:17.196Z,87.11
2024-02-19T14:35:19.067Z,87.30
2024-02-19T14:39:21.560Z,88.57
2024-02-19T14:43:23.445Z,89.61
2024-02-19T14:47:25.218Z,88.87
2024-02-19T14:51:27.031Z,89.28
2024-02-19T14:55:28.758Z,90.32
2024-02-19T14:59:30.455Z,91.22
2024-02-19T15:03:33.166Z,92.13
2024-02-19T15:07:35.783Z,91.50
2024-02-19T15:11:37.482Z,92.56
2024-02-19T15:15:39.013Z,93.37
2024-02-19T15:19:40.771Z,92.43
2024-02-19T15:23:42.694Z,91.54
2024-02-19T15:27:44.380Z,91.85
2024-02-19T15:31:46.407Z,92.14
2024-02-19T15:35:48.681Z,91.97
2024-02-19T15:39:51.013Z,92.46
2024-02-19T15:43:55.620Z,92.80
2024-02-19T15:47:57.904Z,93.31
2024-02-19T15:51:59.510Z,93.65
2024-02-19T15:56:01.211Z,93.83
2024-02-19T16:00:03.023Z,93.58
2024-02-19T16:04:04.794Z,93.70
2024-02-19T16:08:32.336Z,93.71
2024-02-19T16:12:33.902Z,94.04
2024-02-19T16:16:35.666Z,94.42
2024-02-19T16:20:37.330Z,94.79
2024-02-19T16:24:38.918Z,94.32
2024-02-19T16:28:42.025Z,93.99
2024-02-19T16:32:43.805Z,93.36
2024-02-19T16:36:45.889Z,93.09
2024-02-19T16:40:47.849Z,93.64
2024-02-19T16:44:49.492Z,93.41
2024-02-19T16:48:51.192Z,93.43
2024-02-19T16:52:52.804Z,92.77
2024-02-19T16:56:54.349Z,93.28
2024-02-19T17:00:58.993Z,92.56
2024-02-19T17:05:03.356Z,93.58
2024-02-19T17:09:07.210Z,93.68
2024-02-19T17:13:08.793Z,93.99
2024-02-19T17:17:10.595Z,93.75
2024-02-19T17:21:12.197Z,94.11
2024-02-19T17:25:13.914Z,94.15
2024-02-19T17:29:15.481Z,92.65
2024-02-19T17:33:17.174Z,92.31
2024-02-19T17:37:19.250Z,92.23
2024-02-19T17:41:21.084Z,93.04
2024-02-19T17:45:22.922Z,92.78
2024-02-19T17:49:24.833Z,92.12
2024-02-19T17:53:26.505Z,92.17
2024-02-19T17:57:28.024Z,92.54
2024-02-19T18:01:29.803Z,93.39
2024-02-19T18:05:31.651Z,92.68
2024-02-19T18:09:33.239Z,93.18
2024-02-19T18:13:35.171Z,93.50
2024-02-19T18:17:37.373Z,93.92
2024-02-19T18:21:38.951Z,93.91
2024-02-19T18:25:40.488Z,93.26
2024-02-19T18:29:42.625Z,93.47
2024-02-19T18:33:44.384Z,93.19
2024-02-19T18:37:46.108Z,93.30
2024-02-19T18:41:48.360Z,93.03
2024-02-19T18:45:49.934Z,93.25
2024-02-19T18:49:51.702Z,93.57
2024-02-19T18:53:53.433Z,94.14
2024-02-19T18:57:55.557Z,95.01
2024-02-19T19:01:58.967Z,95.37
2024-02-19T19:06:04.353Z,95.54
2024-02-19T19:10:06.871Z,96.08
2024-02-19T19:14:10.842Z,95.89
2024-02-19T19:18:13.063Z,95.96
2024-02-19T19:22:19.891Z,95.78
2024-02-19T19:26:21.608Z,95.77
2024-02-19T19:30:25.104Z,95.95
2024-02-19T19:34:27.955Z,96.52
2024-02-19T19:38:30.307Z,96.62
2024-02-19T19:42:31.891Z,97.16
2024-02-19T19:46:34.335Z,97.76
2024-02-19T19:50:36.932Z,97.89
2024-02-19T19:54:39.501Z,97.95
2024-02-19T19:58:41.165Z,97.87
2024-02-19T20:02:45.969Z,98.08
2024-02-19T20:06:47.847Z,97.96
2024-02-19T20:10:49.791Z,98.09
2024-02-19T20:14:54.140Z,98.52
2024-02-19T20:18:58.775Z,98.39
2024-02-19T20:23:00.532Z,98.39
2024-02-19T20:27:03.023Z,98.66
2024-02-19T20:31:06.960Z,98.73
2024-02-19T20:35:09.389Z,99.02
2024-02-19T20:39:15.141Z,99.07
2024-02-19T20:43:16.747Z,99.24
2024-02-19T20:47:19.765Z,99.39
2024-02-19T20:51:21.302Z,99.29
2024-02-19T20:55:24.206Z,99.29
2024-02-19T20:59:25.787Z,99.22
2024-02-19T21:03:35.506Z,99.14
2024-02-19T21:07:44.539Z,98.99
2024-02-19T21:11:47.235Z,98.80
2024-02-19T21:15:49.015Z,99.31
2024-02-19T21:19:51.124Z,99.54
2024-02-19T21:23:52.833Z,99.70
2024-02-19T21:27:54.420Z,99.74
2024-02-19T21:31:56.111Z,99.59
2024-02-19T21:36:06.062Z,99.75
2024-02-19T21:40:10.422Z,99.76
2024-02-19T21:44:12.816Z,99.85
2024-02-19T21:48:14.443Z,99.92
2024-02-19T21:52:16.132Z,99.85
2024-02-19T21:56:18.050Z,99.51
2024-02-19T22:00:20.681Z,99.54
2024-02-19T22:04:22.322Z,99.56
2024-02-19T22:08:24.647Z,99.62
2024-02-19T22:12:26.184Z,99.50
2024-02-19T22:16:27.788Z,99.66
2024-02-19T22:20:30.598Z,99.73
2024-02-19T22:24:32.132Z,99.71
2024-02-19T22:28:33.765Z,99.58
2024-02-19T22:32:35.350Z,99.99
2024-02-19T22:36:36.873Z,99.86
2024-02-19T22:40:38.603Z,99.95
2024-02-19T22:44:41.762Z,100.00
2024-02-19T22:48:43.373Z,100.00
2024-02-19T22:52:46.792Z,100.00
2024-02-19T22:56:48.654Z,100.00
2024-02-19T23:00:51.178Z,100.00
2024-02-19T23:04:54.309Z,100.00
2024-02-19T23:08:55.825Z,100.00
2024-02-19T23:12:57.904Z,100.00
2024-02-19T23:16:59.777Z,100.00
2024-02-19T23:21:01.519Z,100.00
2024-02-19T23:25:03.675Z,100.00
2024-02-19T23:29:05.248Z,100.00
2024-02-19T23:33:06.981Z,100.00
2024-02-19T23:37:10.550Z,100.00
2024-02-19T23:41:12.780Z,100.00
2024-02-19T23:45:14.469Z,100.00
2024-02-19T23:49:16.722Z,100.00
2024-02-19T23:53:18.399Z,100.00
2024-02-19T23:57:20.236Z,100.00
